createdAt,value
2023-01-08T00:03:31.974Z,85.32
2023-01-08T00:08:34.192Z,86.47
2023-01-08T00:13:42.046Z,86.80
2023-01-08T00:18:44.961Z,86.86
2023-01-08T00:23:46.798Z,87.48
2023-01-08T00:28:48.440Z,87.50
2023-01-08T00:33:50.062Z,87.91
2023-01-08T00:38:51.726Z,88.83
2023-01-08T00:43:53.328Z,88.79
2023-01-08T00:48:55.000Z,89.18
2023-01-08T00:53:59.665Z,89.58
2023-01-08T00:59:01.379Z,89.23
2023-01-08T01:04:03.225Z,89.37
2023-01-08T01:09:04.849Z,89.01
2023-01-08T01:14:06.474Z,90.13
2023-01-08T01:19:08.429Z,90.08
2023-01-08T01:24:12.631Z,90.73
2023-01-08T01:29:14.272Z,91.52
2023-01-08T01:34:16.046Z,92.33
2023-01-08T01:39:19.879Z,93.54
2023-01-08T01:44:41.448Z,93.78
2023-01-08T01:49:49.987Z,94.10
2023-01-08T01:54:52.480Z,95.09
2023-01-08T01:59:56.416Z,95.18
2023-01-08T02:04:59.599Z,95.19
2023-01-08T02:10:11.556Z,95.06
2023-01-08T02:15:24.339Z,94.98
2023-01-08T02:20:46.504Z,95.78
2023-01-08T02:26:09.414Z,96.11
2023-01-08T02:31:13.176Z,96.33
2023-01-08T02:36:33.457Z,96.65
2023-01-08T02:41:42.151Z,97.29
2023-01-08T02:46:44.817Z,97.50
2023-01-08T02:51:53.763Z,98.08
2023-01-08T02:57:03.094Z,98.59
2023-01-08T03:02:05.894Z,99.40
2023-01-08T03:07:07.590Z,100.00
2023-01-08T03:12:38.219Z,100.00
2023-01-08T03:17:45.235Z,100.00
2023-01-08T03:22:50.864Z,100.00
2023-01-08T03:27:57.660Z,100.00
2023-01-08T03:33:01.297Z,100.00
2023-01-08T03:38:40.642Z,100.00
2023-01-08T03:43:42.313Z,100.00
2023-01-08T03:48:44.926Z,100.00
2023-01-08T03:53:47.396Z,100.00
2023-01-08T03:58:49.094Z,99.85
2023-01-08T04:03:50.769Z,99.15
2023-01-08T04:08:55.211Z,98.27
2023-01-08T04:13:56.845Z,97.35
2023-01-08T04:18:58.479Z,96.59
2023-01-08T04:24:00.301Z,95.96
2023-01-08T04:29:04.942Z,95.77
2023-01-08T04:34:06.613Z,95.46
2023-01-08T04:39:08.596Z,94.96
2023-01-08T04:44:10.265Z,94.24
2023-01-08T04:49:12.453Z,93.49
2023-01-08T04:54:14.173Z,93.34
2023-01-08T04:59:15.795Z,93.22
2023-01-08T05:04:17.539Z,92.93
2023-01-08T05:09:19.171Z,92.43
2023-01-08T05:14:20.860Z,92.14
2023-01-08T05:19:22.593Z,91.83
2023-01-08T05:24:24.360Z,91.67
2023-01-08T05:29:25.949Z,91.27
2023-01-08T05:34:27.611Z,91.00
2023-01-08T05:39:29.344Z,90.72
2023-01-08T05:44:31.054Z,91.11
2023-01-08T05:49:32.730Z,91.64
2023-01-08T05:54:34.397Z,92.24
2023-01-08T05:59:36.009Z,92.36
2023-01-08T06:04:37.689Z,92.91
2023-01-08T06:09:39.372Z,92.97
2023-01-08T06:14:40.984Z,92.52
2023-01-08T06:19:42.617Z,91.83
2023-01-08T06:24:44.291Z,92.24
2023-01-08T06:29:45.942Z,91.82
2023-01-08T06:34:47.650Z,91.38
2023-01-08T06:39:49.343Z,91.26
2023-01-08T06:44:51.040Z,90.89
2023-01-08T06:49:52.739Z,90.98
2023-01-08T06:54:54.328Z,91.04
2023-01-08T06:59:55.958Z,91.08
2023-01-08T07:04:57.614Z,91.11
2023-01-08T07:09:59.209Z,91.43
2023-01-08T07:15:01.872Z,91.51
2023-01-08T07:20:03.790Z,91.98
2023-01-08T07:25:06.028Z,91.94
2023-01-08T07:30:12.829Z,92.38
2023-01-08T07:35:19.831Z,92.70
2023-01-08T07:40:21.957Z,92.98
2023-01-08T07:45:23.694Z,93.34
2023-01-08T07:50:26.338Z,93.98
2023-01-08T07:55:29.792Z,93.69
2023-01-08T08:00:31.493Z,93.88
2023-01-08T08:05:34.110Z,93.79
2023-01-08T08:10:35.789Z,93.70
2023-01-08T08:15:38.799Z,94.25
2023-01-08T08:20:40.399Z,94.15
2023-01-08T08:25:42.809Z,94.27
2023-01-08T08:30:44.509Z,94.19
2023-01-08T08:35:50.563Z,93.91
2023-01-08T08:40:52.924Z,94.79
2023-01-08T08:45:57.796Z,94.65
2023-01-08T08:50:59.477Z,94.93
2023-01-08T08:56:01.344Z,95.00
2023-01-08T09:01:04.235Z,95.55
2023-01-08T09:06:06.311Z,95.37
2023-01-08T09:11:08.006Z,95.57
2023-01-08T09:16:09.713Z,95.80
2023-01-08T09:21:11.752Z,95.58
2023-01-08T09:26:13.421Z,95.63
2023-01-08T09:31:15.097Z,95.50
2023-01-08T09:36:17.050Z,95.09
2023-01-08T09:41:26.821Z,94.78
2023-01-08T09:46:29.378Z,94.94
2023-01-08T09:51:36.650Z,94.92
2023-01-08T09:56:38.654Z,94.08
2023-01-08T10:01:41.335Z,94.05
2023-01-08T10:06:57.115Z,93.80
2023-01-08T10:12:02.569Z,93.85
2023-01-08T10:17:23.857Z,93.41
2023-01-08T10:22:31.933Z,93.58
2023-01-08T10:27:45.965Z,93.62
2023-01-08T10:32:56.094Z,93.92
2023-01-08T10:37:58.066Z,93.51
2023-01-08T10:43:08.642Z,93.17
2023-01-08T10:48:18.437Z,93.46
2023-01-08T10:53:28.271Z,93.36
2023-01-08T10:58:30.842Z,92.46
2023-01-08T11:03:33.045Z,92.30
2023-01-08T11:08:34.800Z,92.67
2023-01-08T11:13:36.783Z,92.65
2023-01-08T11:18:51.768Z,92.39
2023-01-08T11:24:22.733Z,92.04
2023-01-08T11:29:38.970Z,90.82
2023-01-08T11:34:59.463Z,89.25
2023-01-08T11:40:01.345Z,89.30
2023-01-08T11:45:17.877Z,88.77
2023-01-08T11:50:29.055Z,88.88
2023-01-08T11:55:35.543Z,88.42
2023-01-08T12:01:15.060Z,87.33
2023-01-08T12:06:37.052Z,87.50
2023-01-08T12:11:47.390Z,87.00
2023-01-08T12:16:59.414Z,86.16
2023-01-08T12:22:16.236Z,85.81
2023-01-08T12:27:40.857Z,85.02
2023-01-08T12:32:55.996Z,84.57
2023-01-08T12:38:11.400Z,84.84
2023-01-08T12:43:27.440Z,83.56
2023-01-08T12:48:33.678Z,83.70
2023-01-08T12:53:49.394Z,83.42
2023-01-08T12:59:08.271Z,82.70
2023-01-08T13:04:11.239Z,82.74
2023-01-08T13:09:23.149Z,82.96
2023-01-08T13:14:27.444Z,82.67
2023-01-08T13:19:38.422Z,82.86
2023-01-08T13:24:42.770Z,83.34
2023-01-08T13:29:50.051Z,82.69
2023-01-08T13:35:16.753Z,82.62
2023-01-08T13:40:43.243Z,81.75
2023-01-08T13:46:08.887Z,82.56
2023-01-08T13:51:44.696Z,81.99
2023-01-08T13:56:53.970Z,82.79
2023-01-08T14:01:57.097Z,82.54
2023-01-08T14:07:12.718Z,82.71
2023-01-08T14:12:20.340Z,82.99
2023-01-08T14:17:31.398Z,82.81
2023-01-08T14:22:34.899Z,83.33
2023-01-08T14:27:36.640Z,84.14
2023-01-08T14:32:43.485Z,84.13
2023-01-08T14:37:45.198Z,84.56
2023-01-08T14:42:47.540Z,84.77
2023-01-08T14:47:56.699Z,84.20
2023-01-08T14:53:26.835Z,83.99
2023-01-08T14:58:35.228Z,83.51
2023-01-08T15:03:40.459Z,83.74
2023-01-08T15:08:44.634Z,83.51
2023-01-08T15:13:48.291Z,83.94
2023-01-08T15:19:18.043Z,84.15
2023-01-08T15:24:29.317Z,83.39
2023-01-08T15:29:37.153Z,83.64
2023-01-08T15:34:38.791Z,83.56
2023-01-08T15:39:41.125Z,83.48
2023-01-08T15:44:42.761Z,83.88
2023-01-08T15:49:44.686Z,84.37
2023-01-08T15:54:46.416Z,84.64
2023-01-08T15:59:48.116Z,85.18
2023-01-08T16:04:54.482Z,85.47
2023-01-08T16:09:56.493Z,85.35
2023-01-08T16:14:58.217Z,85.67
2023-01-08T16:19:59.880Z,86.05
2023-01-08T16:25:01.717Z,86.18
2023-01-08T16:30:04.620Z,86.04
2023-01-08T16:35:06.879Z,85.98
2023-01-08T16:40:10.040Z,85.96
2023-01-08T16:45:11.837Z,86.16
2023-01-08T16:50:13.534Z,86.24
2023-01-08T16:55:15.208Z,86.31
2023-01-08T17:00:17.256Z,86.03
2023-01-08T17:05:18.948Z,86.44
2023-01-08T17:10:22.828Z,86.46
2023-01-08T17:15:24.591Z,86.16
2023-01-08T17:20:26.266Z,86.21
2023-01-08T17:25:28.068Z,85.47
2023-01-08T17:30:29.701Z,85.69
2023-01-08T17:35:31.443Z,85.36
2023-01-08T17:40:34.464Z,85.31
2023-01-08T17:45:38.628Z,85.38
2023-01-08T17:50:40.606Z,85.15
2023-01-08T17:55:42.363Z,85.41
2023-01-08T18:00:44.060Z,84.99
2023-01-08T18:05:45.679Z,84.99
2023-01-08T18:10:47.641Z,85.38
2023-01-08T18:15:49.397Z,86.29
2023-01-08T18:20:56.666Z,86.22
2023-01-08T18:26:07.244Z,86.32
2023-01-08T18:31:13.971Z,86.70
2023-01-08T18:36:18.902Z,86.75
2023-01-08T18:41:39.575Z,86.88
2023-01-08T18:46:41.316Z,87.11
2023-01-08T18:51:43.347Z,87.54
2023-01-08T18:56:46.447Z,88.35
2023-01-08T19:01:48.825Z,88.63
2023-01-08T19:06:50.634Z,89.29
2023-01-08T19:11:53.734Z,89.55
2023-01-08T19:16:58.426Z,89.82
2023-01-08T19:22:03.339Z,89.87
2023-01-08T19:27:05.172Z,90.06
2023-01-08T19:32:07.691Z,89.78
2023-01-08T19:37:09.804Z,90.35
2023-01-08T19:42:30.440Z,90.48
2023-01-08T19:47:32.257Z,90.37
2023-01-08T19:52:33.952Z,90.12
2023-01-08T19:57:35.702Z,90.66
2023-01-08T20:02:37.438Z,90.60
2023-01-08T20:07:41.853Z,90.47
2023-01-08T20:12:46.374Z,90.99
2023-01-08T20:17:48.093Z,90.77
2023-01-08T20:22:52.256Z,90.84
2023-01-08T20:27:53.927Z,90.64
2023-01-08T20:32:55.668Z,90.87
2023-01-08T20:37:57.468Z,90.87
2023-01-08T20:42:59.244Z,91.20
2023-01-08T20:48:04.251Z,91.28
2023-01-08T20:53:05.876Z,91.52
2023-01-08T20:58:07.688Z,91.45
2023-01-08T21:03:15.273Z,91.44
2023-01-08T21:08:22.451Z,92.68
2023-01-08T21:13:25.656Z,93.71
2023-01-08T21:18:33.673Z,95.77
2023-01-08T21:23:35.661Z,96.50
2023-01-08T21:28:38.908Z,97.63
2023-01-08T21:33:41.557Z,98.79
2023-01-08T21:38:44.257Z,99.77
2023-01-08T21:44:06.837Z,100.00
2023-01-08T21:49:08.520Z,100.00
2023-01-08T21:54:10.234Z,100.00
2023-01-08T21:59:12.033Z,100.00
2023-01-08T22:04:13.761Z,99.23
2023-01-08T22:09:15.522Z,98.66
2023-01-08T22:14:17.494Z,97.84
2023-01-08T22:19:19.085Z,96.74
2023-01-08T22:24:20.909Z,96.34
2023-01-08T22:29:22.619Z,95.92
2023-01-08T22:34:24.350Z,95.55
2023-01-08T22:39:26.079Z,95.24
2023-01-08T22:44:27.750Z,95.58
2023-01-08T22:49:29.376Z,95.02
2023-01-08T22:54:31.098Z,94.80
2023-01-08T22:59:32.838Z,94.31
2023-01-08T23:04:34.560Z,93.41
2023-01-08T23:09:36.205Z,92.81
2023-01-08T23:14:40.137Z,92.16
2023-01-08T23:19:42.185Z,91.94
2023-01-08T23:24:43.888Z,92.09
2023-01-08T23:29:45.568Z,92.52
2023-01-08T23:34:48.149Z,92.53
2023-01-08T23:39:49.889Z,93.14
2023-01-08T23:44:51.530Z,93.75
2023-01-08T23:49:53.556Z,93.58
2023-01-08T23:54:55.239Z,93.96
2023-01-08T23:59:56.908Z,94.38
